Time;durP1;ratioP1;P1;durP2;ratioP2;P2;SDS_P1;SDS_P2;PMS_P1;PMS_P2;Temp;Humidity;BMP_temperature;BMP_pressure;BME280_temperature;BME280_humidity;BME280_pressure;Samples;Min_cycle;Max_cycle;Signal;HPM_P1;HPM_P2
2022/12/30 00:01:16;;;;;;;9.35;2.47;;;;;;;6.00;90.44;100935.28;5072717;28;20555;-68
2022/12/30 00:03:42;;;;;;;12.18;2.78;;;;;;;6.02;90.60;100956.31;5073610;28;20043;-69
2022/12/30 00:06:14;;;;;;;9.38;2.60;;;;;;;6.00;90.78;100958.03;5073300;28;20473;-69
2022/12/30 00:08:47;;;;;;;14.15;2.85;;;;;;;5.97;90.75;100963.16;5073551;28;20035;-69
2022/12/30 00:11:13;;;;;;;10.93;2.50;;;;;;;5.98;90.79;100959.69;5072364;28;20032;-69
2022/12/30 00:33:55;;;;;;;13.07;2.88;;;;;;;5.87;91.20;100980.31;5073383;28;20093;-68
2022/12/30 00:36:23;;;;;;;12.68;2.85;;;;;;;5.80;91.52;100973.06;5073005;28;20043;-69
2022/12/30 00:38:49;;;;;;;11.43;2.92;;;;;;;5.83;91.56;100969.69;5073207;28;20029;-69
2022/12/30 00:43:58;;;;;;;11.43;2.72;;;;;;;5.80;91.67;100978.31;5073308;28;20391;-69
2022/12/30 00:46:24;;;;;;;14.48;2.63;;;;;;;5.79;91.36;100968.69;5072877;28;20032;-69
2022/12/30 00:57:05;;;;;;;12.80;2.88;;;;;;;5.75;92.17;100966.81;5072933;28;20044;-69
2022/12/30 00:59:31;;;;;;;14.02;3.42;;;;;;;5.74;91.98;100965.91;5072544;28;20040;-69
2022/12/30 01:01:56;;;;;;;17.48;2.95;;;;;;;5.71;92.40;100965.81;5072858;28;20090;-69
2022/12/30 01:04:21;;;;;;;21.48;3.35;;;;;;;5.72;92.22;100971.94;5072680;28;20031;-69
2022/12/30 01:06:47;;;;;;;13.43;3.03;;;;;;;5.71;92.55;100980.66;5072681;28;20029;-69
2022/12/30 01:09:12;;;;;;;12.38;3.40;;;;;;;5.68;92.21;100983.16;5072596;28;20033;-69
2022/12/30 01:11:38;;;;;;;11.35;2.85;;;;;;;5.65;92.30;100980.44;5074866;28;20386;-69
2022/12/30 01:14:03;;;;;;;11.10;2.83;;;;;;;5.62;92.45;100985.59;5076297;28;20043;-69
2022/12/30 01:16:29;;;;;;;15.20;3.88;;;;;;;5.55;92.67;100984.50;5076277;28;20032;-69
2022/12/30 01:18:55;;;;;;;15.57;3.13;;;;;;;5.59;92.56;100986.38;5076177;28;20044;-70
2022/12/30 01:21:20;;;;;;;12.73;3.63;;;;;;;5.52;92.53;100980.06;5076161;28;20025;-69
2022/12/30 01:23:46;;;;;;;12.45;2.95;;;;;;;5.55;92.80;100987.13;5076153;28;20031;-69
2022/12/30 01:26:13;;;;;;;12.57;4.25;;;;;;;5.55;93.17;100991.47;5076176;28;20028;-69
2022/12/30 01:28:38;;;;;;;17.15;2.90;;;;;;;5.53;93.13;100994.06;5076056;28;20610;-69
2022/12/30 01:31:09;;;;;;;19.88;3.40;;;;;;;5.45;93.46;100985.94;5076112;28;20033;-69
2022/12/30 01:33:35;;;;;;;12.82;3.00;;;;;;;5.47;93.19;100999.94;5076061;28;20481;-69
2022/12/30 01:36:02;;;;;;;11.95;2.80;;;;;;;5.48;93.28;101003.47;5075956;28;20028;-69
2022/12/30 01:38:29;;;;;;;14.15;3.08;;;;;;;5.46;93.02;101002.53;5075842;28;20115;-70
2022/12/30 01:40:54;;;;;;;8.57;2.88;;;;;;;5.45;93.40;101008.63;5075896;28;20111;-69
2022/12/30 01:43:19;;;;;;;14.60;3.22;;;;;;;5.45;93.24;101017.38;5075780;28;20107;-69
2022/12/30 01:45:48;;;;;;;16.50;3.00;;;;;;;5.46;93.20;101013.91;5074622;28;20112;-69
2022/12/30 01:48:16;;;;;;;13.30;2.78;;;;;;;5.44;93.63;101017.34;5075699;28;20478;-69
2022/12/30 01:50:51;;;;;;;11.70;2.63;;;;;;;5.42;93.83;101014.63;5075473;28;20024;-69
2022/12/30 01:53:25;;;;;;;16.73;3.20;;;;;;;5.42;93.79;101008.50;5075692;28;20029;-69
2022/12/30 01:56:01;;;;;;;15.55;2.83;;;;;;;5.41;93.62;101018.09;5075724;28;20051;-69
2022/12/30 01:58:43;;;;;;;14.05;3.28;;;;;;;5.40;93.40;101018.06;5075473;28;20036;-69
2022/12/30 02:01:09;;;;;;;14.35;3.38;;;;;;;5.41;93.71;101019.84;5075322;28;20453;-69
2022/12/30 02:03:54;;;;;;;16.08;3.30;;;;;;;5.38;93.83;101027.59;5075504;28;20029;-69
2022/12/30 02:06:25;;;;;;;10.93;2.85;;;;;;;5.34;93.86;101021.34;5075746;28;20033;-69
2022/12/30 02:08:51;;;;;;;10.67;2.83;;;;;;;5.38;93.75;101027.59;5075425;28;20496;-69
2022/12/30 02:11:16;;;;;;;14.70;2.75;;;;;;;5.36;93.76;101022.31;5075160;28;20358;-69
2022/12/30 02:13:42;;;;;;;16.38;3.22;;;;;;;5.34;94.15;101009.97;5074100;28;20090;-68
2022/12/30 02:16:22;;;;;;;12.75;2.78;;;;;;;5.36;94.54;101008.31;5075175;28;20025;-70
2022/12/30 02:19:15;;;;;;;12.73;3.13;;;;;;;5.36;94.44;101009.19;5075134;28;20029;-69
2022/12/30 02:21:41;;;;;;;;;;;;;;;5.40;93.72;101003.22;5075413;28;20111;-69
2022/12/30 02:27:07;;;;;;;;;;;;;;;5.39;94.05;101005.78;5057481;22;20505;-63
2022/12/30 02:36:58;;;;;;;15.32;3.10;;;;;;;5.31;94.27;100996.75;5035073;28;20043;-64
2022/12/30 02:39:38;;;;;;;15.20;3.22;;;;;;;5.22;94.15;100979.91;5036205;23;20506;-81
2022/12/30 02:45:24;;;;;;;10.00;2.72;;;;;;;5.23;94.21;100986.94;5039706;23;20575;-71
2022/12/30 02:48:01;;;;;;;12.88;2.85;;;;;;;5.20;94.88;100978.06;4976897;28;20117;-70
2022/12/30 02:53:17;;;;;;;14.52;3.28;;;;;;;5.19;94.32;100977.19;4995595;28;20045;-70
2022/12/30 02:55:43;;;;;;;16.73;3.20;;;;;;;5.19;94.97;100971.06;4995043;28;20391;-71
2022/12/30 02:58:09;;;;;;;12.05;2.55;;;;;;;5.15;95.09;100959.56;4994967;28;20027;-71
2022/12/30 03:03:58;;;;;;;19.52;3.13;;;;;;;5.09;94.78;100954.09;4995021;28;20161;-71
2022/12/30 03:06:26;;;;;;;18.98;3.40;;;;;;;5.09;95.26;100950.59;4994920;28;20033;-71
2022/12/30 03:09:06;;;;;;;13.23;2.97;;;;;;;5.10;94.86;100957.66;4994862;28;20030;-71
2022/12/30 03:11:43;;;;;;;14.88;3.30;;;;;;;5.07;94.97;100958.41;4994854;28;20129;-71
2022/12/30 03:14:21;;;;;;;15.82;3.20;;;;;;;5.03;95.24;100951.28;4977601;28;20053;-71
2022/12/30 03:16:59;;;;;;;13.45;3.00;;;;;;;5.01;95.41;100955.56;4994820;28;20022;-71
2022/12/30 03:19:31;;;;;;;14.15;3.08;;;;;;;5.05;94.84;100957.47;4994817;28;20109;-71
2022/12/30 03:21:56;;;;;;;11.67;2.83;;;;;;;5.04;95.06;100966.16;4994467;28;20460;-71
2022/12/30 03:27:14;;;;;;;13.20;3.10;;;;;;;4.97;94.90;100944.13;4994893;28;20085;-71
2022/12/30 03:29:46;;;;;;;17.52;3.13;;;;;;;4.97;95.06;100953.72;4994514;28;20030;-71
2022/12/30 03:32:15;;;;;;;14.07;3.05;;;;;;;4.96;95.52;100957.13;4994431;28;20030;-71
2022/12/30 03:34:41;;;;;;;11.60;3.03;;;;;;;4.91;95.33;100956.09;4993580;28;20026;-71
2022/12/30 03:37:16;;;;;;;14.35;3.30;;;;;;;4.89;95.70;100952.53;4994289;28;20026;-71
2022/12/30 03:39:48;;;;;;;13.02;3.50;;;;;;;4.82;95.31;100947.91;4994395;28;20038;-71
2022/12/30 03:42:15;;;;;;;15.68;3.13;;;;;;;4.82;95.60;100942.69;4994301;28;20471;-71
2022/12/30 03:44:42;;;;;;;11.13;3.25;;;;;;;4.82;95.42;100935.72;4993998;28;20133;-71
2022/12/30 03:47:12;;;;;;;19.02;3.15;;;;;;;4.78;96.48;100952.16;4976730;28;20427;-71
2022/12/30 03:49:40;;;;;;;16.73;3.10;;;;;;;4.77;96.43;100959.13;4994152;28;20109;-71
2022/12/30 03:52:06;;;;;;;17.38;3.35;;;;;;;4.77;96.74;100961.72;4993920;28;20464;-71
2022/12/30 03:54:32;;;;;;;14.50;3.05;;;;;;;4.73;96.52;100957.22;4976881;28;20049;-70
2022/12/30 03:56:57;;;;;;;22.08;4.07;;;;;;;4.75;96.80;100963.41;4960594;28;20062;-71
2022/12/30 03:59:23;;;;;;;13.48;3.30;;;;;;;4.74;96.38;100958.09;4994060;28;20548;-72
2022/12/30 04:01:48;;;;;;;14.13;3.38;;;;;;;4.74;96.61;100973.81;4993905;28;20052;-71
2022/12/30 04:04:13;;;;;;;12.77;2.80;;;;;;;4.73;96.47;100949.38;4993934;28;20029;-71
2022/12/30 04:06:39;;;;;;;17.85;3.30;;;;;;;4.73;96.62;100953.72;4976538;28;20490;-71
2022/12/30 04:09:04;;;;;;;15.02;4.00;;;;;;;4.70;97.16;100959.72;4993834;28;20102;-72
2022/12/30 04:11:29;;;;;;;16.52;4.03;;;;;;;4.66;97.35;100954.31;4960303;28;20026;-72
2022/12/30 04:13:55;;;;;;;19.88;3.67;;;;;;;4.66;97.46;100957.81;4993870;28;20034;-71
2022/12/30 04:16:20;;;;;;;10.82;3.30;;;;;;;4.68;97.49;100965.75;4993832;28;20031;-72
2022/12/30 04:18:46;;;;;;;15.50;3.00;;;;;;;4.67;97.39;100959.63;4993698;28;20058;-72
2022/12/30 04:21:11;;;;;;;22.92;4.22;;;;;;;4.64;97.54;100962.13;4993559;28;20502;-71
2022/12/30 04:23:36;;;;;;;10.48;2.85;;;;;;;4.64;98.00;100967.38;4993792;28;20034;-72
2022/12/30 04:26:02;;;;;;;14.38;3.03;;;;;;;4.64;98.34;100966.47;4993739;28;20360;-72
2022/12/30 04:28:27;;;;;;;18.98;3.97;;;;;;;4.61;97.59;100964.63;4993687;28;20022;-71
2022/12/30 04:30:53;;;;;;;12.68;3.15;;;;;;;4.63;97.97;100968.22;4993827;28;20420;-72
2022/12/30 04:33:18;;;;;;;11.13;2.80;;;;;;;4.61;98.47;100969.84;4993845;28;20038;-72
2022/12/30 04:35:43;;;;;;;15.68;3.30;;;;;;;4.55;98.28;100946.09;4993636;28;20033;-71
2022/12/30 04:38:09;;;;;;;14.95;3.22;;;;;;;4.61;98.56;100966.34;4992304;28;20039;-71
2022/12/30 04:40:34;;;;;;;19.15;3.08;;;;;;;4.58;98.97;100959.28;4993596;28;20471;-71
2022/12/30 04:43:00;;;;;;;14.82;3.40;;;;;;;4.56;99.01;100953.09;4993602;28;20031;-71
2022/12/30 04:45:28;;;;;;;17.10;3.45;;;;;;;4.54;98.74;100957.41;4976502;28;20054;-71
2022/12/30 04:47:53;;;;;;;14.38;3.25;;;;;;;4.59;98.90;100960.19;4980061;28;20094;-71
2022/12/30 04:50:19;;;;;;;15.93;3.47;;;;;;;4.55;99.68;100956.56;4997334;28;20035;-71
2022/12/30 04:52:44;;;;;;;19.27;3.70;;;;;;;4.54;99.19;100957.41;4979856;28;20034;-71
2022/12/30 04:55:10;;;;;;;13.23;3.17;;;;;;;4.53;99.28;100947.75;4997299;28;20034;-71
2022/12/30 04:57:35;;;;;;;12.90;3.28;;;;;;;4.50;99.29;100953.78;4997200;28;20038;-71
2022/12/30 05:00:01;;;;;;;18.48;3.65;;;;;;;4.42;99.81;100954.34;4997303;28;20027;-71
2022/12/30 05:02:26;;;;;;;18.50;3.92;;;;;;;4.52;99.93;100956.44;4997249;28;20066;-71
2022/12/30 05:04:52;;;;;;;14.23;3.67;;;;;;;4.51;100.00;100952.06;4997349;28;20057;-71
2022/12/30 05:07:17;;;;;;;19.30;3.72;;;;;;;4.50;100.00;100953.78;4997044;28;20496;-72
2022/12/30 05:09:43;;;;;;;16.40;3.15;;;;;;;4.50;99.75;100939.81;4997053;28;20023;-71
2022/12/30 05:12:08;;;;;;;17.85;3.60;;;;;;;4.51;100.00;100952.94;4997068;28;20488;-72
2022/12/30 05:14:33;;;;;;;17.13;3.38;;;;;;;4.50;100.00;100945.94;4996996;28;20038;-71
2022/12/30 05:16:59;;;;;;;15.55;3.40;;;;;;;4.50;100.00;100945.94;4996803;28;20031;-71
2022/12/30 05:19:24;;;;;;;12.80;3.30;;;;;;;4.50;100.00;100935.47;4996966;28;20034;-72
2022/12/30 05:21:50;;;;;;;15.63;3.30;;;;;;;4.51;100.00;100928.50;4995454;28;20057;-71
2022/12/30 05:26:59;;;;;;;20.58;3.30;;;;;;;4.51;100.00;100938.97;4997120;28;20061;-71
2022/12/30 05:29:24;;;;;;;15.52;3.30;;;;;;;4.53;100.00;100948.63;4979462;28;20487;-71
2022/12/30 05:31:50;;;;;;;17.58;3.42;;;;;;;4.52;100.00;100944.25;4995700;28;20026;-71
2022/12/30 05:34:15;;;;;;;18.55;3.50;;;;;;;4.50;100.00;100940.69;4979273;28;20447;-72
2022/12/30 05:36:40;;;;;;;13.60;2.95;;;;;;;4.50;100.00;100945.94;4979204;28;20036;-72
2022/12/30 05:39:06;;;;;;;17.85;3.60;;;;;;;4.47;100.00;100935.34;4996681;28;20423;-72
2022/12/30 05:41:31;;;;;;;14.80;3.28;;;;;;;4.48;100.00;100936.22;4996498;28;20022;-71
2022/12/30 05:43:57;;;;;;;16.92;3.47;;;;;;;4.48;100.00;100941.47;4996169;28;20065;-72
2022/12/30 05:46:22;;;;;;;11.88;3.55;;;;;;;4.49;100.00;100946.75;4996515;28;20127;-71
2022/12/30 05:48:48;;;;;;;16.33;4.40;;;;;;;4.50;100.00;100939.81;4979025;28;20069;-71
2022/12/30 05:51:13;;;;;;;13.95;3.53;;;;;;;4.51;100.00;100938.97;4996096;28;20073;-71
2022/12/30 05:53:39;;;;;;;16.63;3.50;;;;;;;4.49;100.00;100941.50;4978733;28;20510;-71
2022/12/30 05:56:05;;;;;;;19.10;3.50;;;;;;;4.48;100.00;100933.59;4996196;28;20026;-71
2022/12/30 05:58:30;;;;;;;14.18;3.10;;;;;;;4.45;100.00;100938.72;4995114;28;20484;-71
2022/12/30 06:00:56;;;;;;;13.43;3.10;;;;;;;4.45;100.00;100941.34;4996265;28;20105;-71
2022/12/30 06:03:22;;;;;;;12.48;2.95;;;;;;;4.46;100.00;100935.28;4978923;28;20479;-71
2022/12/30 06:05:47;;;;;;;25.75;3.75;;;;;;;4.46;100.00;100936.19;4996022;28;20041;-72
2022/12/30 06:08:13;;;;;;;17.17;3.15;;;;;;;4.45;100.00;100946.56;4996017;28;20026;-71
2022/12/30 06:10:38;;;;;;;16.67;3.33;;;;;;;4.44;100.00;100940.44;4994718;28;20113;-71
2022/12/30 06:13:03;;;;;;;16.58;3.47;;;;;;;4.45;100.00;100931.78;4995943;28;20057;-71
2022/12/30 06:15:29;;;;;;;13.80;3.03;;;;;;;4.44;100.00;100924.75;4995715;28;20548;-71
2022/12/30 06:17:54;;;;;;;17.95;3.22;;;;;;;4.45;100.00;100923.03;4995829;28;20069;-71
2022/12/30 06:20:20;;;;;;;14.20;3.45;;;;;;;4.45;100.00;100917.78;4995564;28;20023;-71
2022/12/30 06:22:45;;;;;;;13.00;3.83;;;;;;;4.45;100.00;100917.78;4995653;28;20554;-71
2022/12/30 06:25:10;;;;;;;15.48;3.85;;;;;;;4.46;100.00;100910.03;4995676;28;20089;-71
2022/12/30 06:27:36;;;;;;;19.52;3.78;;;;;;;4.48;100.00;100912.69;4995612;28;20062;-71
2022/12/30 06:30:02;;;;;;;10.32;2.72;;;;;;;4.46;100.00;100909.13;4994402;28;20399;-71
2022/12/30 06:32:27;;;;;;;14.27;3.33;;;;;;;4.50;100.00;100922.38;4995689;28;20027;-71
2022/12/30 06:34:53;;;;;;;14.95;3.30;;;;;;;4.52;100.00;100911.97;4995606;28;20430;-72
2022/12/30 06:37:18;;;;;;;18.13;3.92;;;;;;;4.52;100.00;100907.63;4995370;28;20036;-71
2022/12/30 06:39:44;;;;;;;12.77;3.42;;;;;;;4.53;100.00;100912.00;4995437;28;20023;-71
2022/12/30 06:42:09;;;;;;;9.88;2.97;;;;;;;4.54;100.00;100907.69;4978100;28;20034;-71
2022/12/30 06:44:34;;;;;;;14.10;3.50;;;;;;;4.50;100.00;100895.31;4995035;28;20499;-71
2022/12/30 06:47:00;;;;;;;12.98;3.35;;;;;;;4.55;100.00;100899.00;4995352;28;20045;-71
2022/12/30 06:49:25;;;;;;;13.85;3.25;;;;;;;4.57;100.00;100884.22;4995340;28;20387;-71
2022/12/30 06:51:51;;;;;;;11.82;3.20;;;;;;;4.57;100.00;100876.38;4994690;28;20030;-71
2022/12/30 06:54:16;;;;;;;10.98;3.17;;;;;;;4.58;100.00;100872.91;4995125;28;20121;-71
2022/12/30 06:56:41;;;;;;;16.92;3.70;;;;;;;4.58;100.00;100872.03;4995118;28;20492;-71
2022/12/30 06:59:07;;;;;;;14.05;3.30;;;;;;;4.59;100.00;100868.59;4994947;28;20117;-71
2022/12/30 07:01:32;;;;;;;15.70;3.58;;;;;;;4.55;100.00;100856.25;4961467;28;20049;-71
2022/12/30 07:03:57;;;;;;;11.68;2.90;;;;;;;4.52;100.00;100854.38;4995038;28;20030;-71
2022/12/30 07:06:23;;;;;;;14.02;3.17;;;;;;;4.52;100.00;100846.53;4994912;28;20030;-72
2022/12/30 07:08:48;;;;;;;12.98;3.33;;;;;;;4.52;100.00;100841.31;4977488;28;20117;-71
2022/12/30 07:11:14;;;;;;;14.07;3.38;;;;;;;4.53;100.00;100832.63;4977477;28;20030;-71
2022/12/30 07:13:39;;;;;;;15.35;3.28;;;;;;;4.51;100.00;100823.84;4994833;28;20499;-71
2022/12/30 07:16:05;;;;;;;14.63;3.30;;;;;;;4.54;100.00;100829.19;4994750;28;20025;-71
2022/12/30 07:18:30;;;;;;;10.00;2.92;;;;;;;4.55;100.00;100828.34;4977157;28;20035;-71
2022/12/30 07:20:55;;;;;;;13.27;3.38;;;;;;;4.59;100.00;100832.84;4994529;28;20026;-71
2022/12/30 07:23:22;;;;;;;11.88;3.50;;;;;;;4.58;100.00;100827.53;4994491;28;20030;-71
2022/12/30 07:25:47;;;;;;;13.32;3.30;;;;;;;4.58;100.00;100827.53;4994452;28;20026;-71
2022/12/30 07:28:12;;;;;;;13.73;3.05;;;;;;;4.59;100.00;100839.81;4994750;28;20480;-71
2022/12/30 07:30:38;;;;;;;12.30;3.78;;;;;;;4.56;100.00;100832.72;4977247;28;20074;-71
2022/12/30 07:33:03;;;;;;;12.43;3.45;;;;;;;4.54;100.00;100826.56;4994414;28;20029;-71
2022/12/30 07:35:28;;;;;;;18.15;3.35;;;;;;;4.57;100.00;100824.03;4994537;28;20031;-71
2022/12/30 07:37:54;;;;;;;14.52;3.58;;;;;;;4.46;100.00;100799.25;4994266;28;20431;-72
2022/12/30 07:40:19;;;;;;;12.60;3.20;;;;;;;4.56;100.00;100811.78;4994323;28;20098;-71
2022/12/30 07:42:45;;;;;;;12.43;3.15;;;;;;;4.56;100.00;100809.19;4994453;28;20018;-71
2022/12/30 07:45:10;;;;;;;11.45;3.30;;;;;;;4.56;100.00;100792.59;4994078;28;20046;-71
2022/12/30 07:47:39;;;;;;;11.75;3.30;;;;;;;4.58;100.00;100789.16;4976754;28;20484;-71
2022/12/30 07:50:05;;;;;;;14.02;3.97;;;;;;;4.60;100.00;100778.78;4976569;28;20022;-71
2022/12/30 07:52:31;;;;;;;11.82;3.20;;;;;;;4.63;100.00;100773.66;4993926;28;20037;-71
2022/12/30 07:54:56;;;;;;;14.23;3.40;;;;;;;4.67;100.00;100780.78;4994068;28;20031;-71
2022/12/30 07:57:22;;;;;;;11.85;2.95;;;;;;;4.71;100.00;100770.47;4994010;28;20172;-71
2022/12/30 07:59:47;;;;;;;10.65;4.40;;;;;;;4.74;100.00;100775.78;4994039;28;20026;-71
2022/12/30 08:02:13;;;;;;;10.85;3.20;;;;;;;4.77;100.00;100754.06;4993995;28;20383;-71
2022/12/30 08:04:38;;;;;;;12.40;3.25;;;;;;;4.79;100.00;100752.34;4993983;28;20031;-71
2022/12/30 08:07:04;;;;;;;9.57;2.85;;;;;;;4.82;100.00;100752.47;4993956;28;20113;-71
2022/12/30 08:09:30;;;;;;;10.18;2.90;;;;;;;4.87;100.00;100753.50;4993957;28;20041;-71
2022/12/30 08:11:55;;;;;;;11.27;2.92;;;;;;;4.88;100.00;100738.69;4993851;28;20031;-71
2022/12/30 08:14:21;;;;;;;12.93;2.88;;;;;;;4.88;100.00;100742.22;4993835;28;20026;-71
2022/12/30 08:16:46;;;;;;;10.50;3.03;;;;;;;4.92;100.00;100737.94;4993741;28;20503;-71
2022/12/30 08:19:12;;;;;;;15.52;2.80;;;;;;;4.94;100.00;100733.66;4993805;28;20512;-71
2022/12/30 08:21:37;;;;;;;10.02;3.05;;;;;;;5.00;100.00;100732.09;4975684;28;20073;-70
2022/12/30 08:24:03;;;;;;;11.80;2.90;;;;;;;5.07;100.00;100730.56;4993838;28;20031;-71
2022/12/30 08:26:29;;;;;;;10.75;2.92;;;;;;;5.09;100.00;100734.09;4993786;28;20434;-71
2022/12/30 08:28:54;;;;;;;10.65;2.90;;;;;;;5.16;100.00;100725.63;4993678;28;20045;-70
2022/12/30 08:31:22;;;;;;;8.73;2.65;;;;;;;5.19;100.00;100735.31;4993720;28;20061;-71
2022/12/30 08:33:48;;;;;;;11.90;3.20;;;;;;;5.23;100.00;100731.94;4993695;28;20105;-70
2022/12/30 08:36:17;;;;;;;12.38;3.10;;;;;;;5.29;100.00;100724.25;4993661;28;20038;-71
2022/12/30 08:38:45;;;;;;;9.50;2.72;;;;;;;5.35;100.00;100723.53;4976071;28;20053;-71
2022/12/30 08:41:18;;;;;;;11.25;2.80;;;;;;;5.40;100.00;100725.47;4976153;28;20022;-71
2022/12/30 08:43:43;;;;;;;8.20;2.92;;;;;;;5.48;100.00;100697.75;4993734;28;20445;-71
2022/12/30 08:46:09;;;;;;;8.88;3.08;;;;;;;5.53;100.00;100704.03;4993411;28;20070;-71
2022/12/30 08:48:34;;;;;;;12.48;2.90;;;;;;;5.60;100.00;100701.56;4992361;28;20035;-71
2022/12/30 08:51:00;;;;;;;9.48;3.10;;;;;;;5.65;100.00;100699.94;4993380;28;20066;-71
2022/12/30 08:53:26;;;;;;;8.07;2.90;;;;;;;5.69;100.00;100692.22;4993461;28;20034;-71
2022/12/30 08:56:27;;;;;;;7.85;2.50;;;;;;;5.76;100.00;100681.06;4993511;28;20031;-70
2022/12/30 08:58:53;;;;;;;7.13;2.65;;;;;;;5.83;100.00;100684.75;4993477;28;20035;-71
2022/12/30 09:01:22;;;;;;;9.43;2.80;;;;;;;5.88;100.00;100675.28;4993467;28;20065;-71
2022/12/30 09:03:49;;;;;;;12.25;2.90;;;;;;;5.95;99.85;100674.63;4993372;28;20030;-71
2022/12/30 09:06:16;;;;;;;10.60;2.53;;;;;;;5.95;100.00;100664.13;4993337;28;20031;-71
2022/12/30 09:08:41;;;;;;;7.38;2.58;;;;;;;6.01;99.67;100672.16;4993402;28;20030;-71
2022/12/30 09:11:11;;;;;;;12.95;2.60;;;;;;;6.05;98.93;100662.63;4993588;28;20038;-71
2022/12/30 09:13:37;;;;;;;7.03;2.22;;;;;;;6.16;98.71;100657.66;4976230;28;20033;-71
2022/12/30 09:16:10;;;;;;;9.60;2.40;;;;;;;6.23;97.11;100651.72;4976073;28;20029;-71
2022/12/30 09:18:35;;;;;;;8.13;2.20;;;;;;;6.27;98.04;100654.47;4993461;28;20056;-71
2022/12/30 09:21:02;;;;;;;8.52;2.22;;;;;;;6.34;97.32;100649.34;4993054;28;20037;-71
2022/12/30 09:23:27;;;;;;;10.80;2.33;;;;;;;6.38;97.23;100643.31;4993264;28;20480;-70
2022/12/30 09:25:53;;;;;;;5.85;1.92;;;;;;;6.40;96.93;100644.28;4993235;28;20019;-71
2022/12/30 09:28:18;;;;;;;7.18;2.30;;;;;;;6.46;96.70;100645.28;4993195;28;20120;-71
2022/12/30 09:30:44;;;;;;;7.85;2.33;;;;;;;6.54;95.64;100640.22;4975709;28;20061;-71
2022/12/30 09:33:09;;;;;;;8.50;2.63;;;;;;;6.58;95.96;100638.56;4994510;28;20033;-70
2022/12/30 09:35:34;;;;;;;7.50;2.20;;;;;;;6.62;95.27;100637.78;4996932;28;20042;-70
2022/12/30 09:38:00;;;;;;;8.32;2.60;;;;;;;6.70;95.19;100636.22;4996554;28;20439;-71
2022/12/30 09:40:58;;;;;;;8.48;1.90;;;;;;;6.74;94.84;100624.94;4996540;28;20030;-71
2022/12/30 09:43:28;;;;;;;7.38;1.90;;;;;;;6.78;94.49;100632.91;4964574;28;20070;-71
2022/12/30 09:46:15;;;;;;;6.72;2.30;;;;;;;6.84;94.30;100631.28;4996311;28;20038;-71
2022/12/30 09:48:54;;;;;;;4.82;1.90;;;;;;;6.84;93.65;100615.53;4996443;28;20034;-71
2022/12/30 09:51:25;;;;;;;4.20;1.95;;;;;;;6.87;94.35;100597.22;4996184;28;20023;-71
2022/12/30 09:53:56;;;;;;;7.05;2.22;;;;;;;6.91;93.67;100604.31;4978850;28;20104;-71
2022/12/30 09:56:34;;;;;;;8.52;2.22;;;;;;;6.92;93.37;100595.56;4996406;28;20034;-72
2022/12/30 09:59:12;;;;;;;9.70;2.30;;;;;;;6.93;93.70;100590.34;4996149;28;20019;-71
2022/12/30 10:01:47;;;;;;;9.27;2.30;;;;;;;6.97;92.80;100588.66;4996352;28;20030;-72
2022/12/30 10:04:15;;;;;;;7.15;2.08;;;;;;;6.97;93.30;100583.41;4978621;28;20054;-71
2022/12/30 10:07:02;;;;;;;7.97;2.00;;;;;;;6.99;94.02;100573.84;4996082;28;20026;-71
2022/12/30 10:09:49;;;;;;;5.95;1.88;;;;;;;7.01;93.19;100566.88;4996317;28;20356;-71
2022/12/30 10:12:23;;;;;;;5.88;2.08;;;;;;;7.04;93.05;100566.94;4996080;28;20042;-71
2022/12/30 10:15:13;;;;;;;5.05;2.20;;;;;;;7.02;94.00;100559.03;4995993;28;20518;-71
2022/12/30 10:17:57;;;;;;;7.90;2.45;;;;;;;7.04;93.82;100564.31;4996143;28;20122;-71
2022/12/30 10:20:50;;;;;;;7.60;2.20;;;;;;;7.07;93.88;100539.84;4995700;28;20110;-71
2022/12/30 10:23:34;;;;;;;7.40;2.50;;;;;;;7.14;93.20;100529.47;4978324;28;20125;-71
2022/12/30 10:26:08;;;;;;;5.50;2.72;;;;;;;7.13;93.36;100517.19;4978266;28;20419;-71
2022/12/30 10:28:43;;;;;;;7.43;2.65;;;;;;;7.15;92.45;100499.72;4995734;28;20058;-71
2022/12/30 10:31:18;;;;;;;8.57;2.45;;;;;;;7.19;92.38;100511.16;4995946;28;20099;-70
2022/12/30 10:33:45;;;;;;;11.30;2.53;;;;;;;7.26;92.64;100505.19;4995654;28;20030;-70
2022/12/30 10:36:28;;;;;;;7.18;2.00;;;;;;;7.31;92.10;100497.38;4995501;28;20041;-71
2022/12/30 10:39:13;;;;;;;7.40;2.30;;;;;;;7.33;91.77;100487.78;4995533;28;20379;-70
2022/12/30 10:42:00;;;;;;;8.02;2.58;;;;;;;7.37;91.66;100479.09;4995780;28;20036;-70
2022/12/30 10:44:51;;;;;;;7.03;2.10;;;;;;;7.39;91.45;100469.47;4994708;28;20069;-70
2022/12/30 10:47:23;;;;;;;9.98;2.50;;;;;;;7.47;91.70;100453.00;4991207;28;20506;-70
2022/12/30 10:50:23;;;;;;;11.40;2.30;;;;;;;7.51;90.86;100465.31;4995215;28;20061;-70
2022/12/30 10:52:50;;;;;;;7.15;1.90;;;;;;;7.55;90.59;100436.47;4981773;28;20134;-70
2022/12/30 10:55:24;;;;;;;7.15;2.20;;;;;;;7.61;90.92;100434.81;4995053;28;20025;-70
2022/12/30 10:57:55;;;;;;;7.40;2.00;;;;;;;7.61;90.76;100411.13;4995213;28;20034;-70
2022/12/30 11:00:21;;;;;;;7.13;2.03;;;;;;;7.65;90.44;100410.31;4977549;28;20026;-70
2022/12/30 11:02:58;;;;;;;11.02;2.60;;;;;;;7.70;90.59;100410.41;4977522;28;20032;-70
2022/12/30 11:05:38;;;;;;;8.93;2.20;;;;;;;7.75;89.91;100399.09;4994846;28;20435;-70
2022/12/30 11:08:06;;;;;;;10.80;2.75;;;;;;;7.78;89.75;100380.72;4977397;28;20594;-70
2022/12/30 11:10:31;;;;;;;6.25;2.13;;;;;;;7.80;90.04;100374.63;4994822;28;20076;-71
2022/12/30 11:16:11;;;;;;;6.70;1.98;;;;;;;7.89;88.69;100358.97;4988501;28;20587;-70
2022/12/30 11:18:37;;;;;;;10.18;2.10;;;;;;;7.92;88.60;100370.41;4994642;28;20026;-70
2022/12/30 11:21:06;;;;;;;13.18;2.53;;;;;;;7.97;88.57;100345.03;4977080;28;20475;-70
2022/12/30 11:23:35;;;;;;;10.20;2.20;;;;;;;7.97;88.27;100349.44;4977031;28;20030;-70
2022/12/30 11:26:03;;;;;;;5.28;2.22;;;;;;;8.01;87.70;100340.72;4994532;28;20106;-70
2022/12/30 11:28:33;;;;;;;11.48;2.90;;;;;;;8.06;87.41;100330.25;4994519;28;20578;-70
2022/12/30 11:31:04;;;;;;;6.80;2.92;;;;;;;8.05;87.47;100308.31;4994609;28;20041;-70
2022/12/30 11:33:44;;;;;;;8.35;2.38;;;;;;;8.03;88.43;100297.75;4994742;28;20057;-69
2022/12/30 11:36:17;;;;;;;10.00;2.10;;;;;;;8.11;87.91;100286.44;4994616;28;20027;-70
2022/12/30 11:38:45;;;;;;;8.68;2.33;;;;;;;8.06;87.42;100281.13;4994272;28;20080;-70
2022/12/30 11:41:18;;;;;;;9.95;2.40;;;;;;;8.10;86.99;100272.41;4994413;28;20030;-70
2022/12/30 11:44:12;;;;;;;13.23;3.00;;;;;;;8.11;87.34;100258.38;4994215;28;20061;-70
2022/12/30 11:46:43;;;;;;;9.55;2.13;;;;;;;8.17;86.96;100265.44;4976543;28;20042;-70
2022/12/30 11:49:29;;;;;;;9.52;2.22;;;;;;;8.15;87.80;100261.94;4976844;28;20033;-71
2022/12/30 11:52:03;;;;;;;6.20;2.05;;;;;;;8.18;87.18;100259.31;4994007;28;20038;-71
2022/12/30 11:54:37;;;;;;;8.80;2.33;;;;;;;8.20;87.39;100233.91;4994042;28;20045;-70
2022/12/30 11:57:30;;;;;;;9.13;2.83;;;;;;;8.23;87.29;100221.69;4993531;28;20030;-70
2022/12/30 12:00:23;;;;;;;7.28;2.08;;;;;;;8.23;86.80;100213.78;4985903;28;20042;-71
2022/12/30 12:03:14;;;;;;;9.85;2.63;;;;;;;8.28;86.63;100221.72;4994078;28;20022;-70
2022/12/30 12:05:43;;;;;;;10.13;3.58;;;;;;;8.31;86.12;100190.16;4994108;28;20037;-70
2022/12/30 12:08:25;;;;;;;10.43;2.83;;;;;;;8.32;86.17;100181.41;4994112;28;20475;-70
2022/12/30 12:11:04;;;;;;;9.80;3.13;;;;;;;8.37;85.90;100156.03;4994020;28;20026;-70
2022/12/30 12:13:48;;;;;;;11.45;2.80;;;;;;;8.38;86.46;100157.78;4993933;28;20045;-70
2022/12/30 12:17:01;;;;;;;8.52;2.97;;;;;;;8.44;86.33;100156.97;4976210;28;20480;-71
2022/12/30 12:19:36;;;;;;;6.88;2.22;;;;;;;8.45;85.31;100149.06;4950713;28;20053;-70
2022/12/30 12:22:10;;;;;;;9.65;2.67;;;;;;;8.46;85.67;100142.94;4976280;28;20134;-70
2022/12/30 12:24:42;;;;;;;8.30;2.40;;;;;;;8.52;86.23;100147.34;4993745;28;20036;-70
2022/12/30 12:27:17;;;;;;;6.65;2.38;;;;;;;8.56;85.66;100135.97;4993824;28;20027;-70
2022/12/30 12:29:43;;;;;;;9.30;2.60;;;;;;;8.59;86.11;100125.47;4993804;28;20018;-71
2022/12/30 12:32:32;;;;;;;6.90;2.20;;;;;;;8.60;86.17;100127.22;4993705;28;20076;-70
2022/12/30 12:35:33;;;;;;;6.25;2.05;;;;;;;8.58;87.21;100102.66;4993757;28;20038;-70